Time;durP1;ratioP1;P1;durP2;ratioP2;P2;SDS_P1;SDS_P2;PMS_P1;PMS_P2;Temp;Humidity;BMP_temperature;BMP_pressure;BME280_temperature;BME280_humidity;BME280_pressure;Samples;Min_cycle;Max_cycle;Signal;HPM_P1;HPM_P2
2021/12/28 00:00:25;;;;;;;33.45;16.98;;;;;;;-2.46;53.65;99799.22;5026066;28;20257;-71
2021/12/28 00:02:54;;;;;;;30.83;15.48;;;;;;;-2.38;53.35;99792.94;5024460;28;20497;-70
2021/12/28 00:05:22;;;;;;;35.03;16.35;;;;;;;-2.35;53.52;99797.19;5024212;28;20053;-70
2021/12/28 00:07:50;;;;;;;28.02;11.73;;;;;;;-2.33;53.46;99792.81;5024957;28;20059;-69
2021/12/28 00:10:18;;;;;;;35.33;17.85;;;;;;;-2.31;53.45;99801.38;5024205;28;20049;-70
2021/12/28 00:12:47;;;;;;;22.92;12.05;;;;;;;-2.27;53.31;99802.97;5022802;28;20052;-70
2021/12/28 00:15:34;;;;;;;23.67;12.95;;;;;;;-2.27;53.41;99797.81;5024726;28;20136;-71
2021/12/28 00:18:04;;;;;;;29.40;14.45;;;;;;;-2.20;53.34;99790.75;5023744;28;20125;-70
2021/12/28 00:20:34;;;;;;;27.65;11.93;;;;;;;-2.17;53.27;99794.09;5025457;28;20050;-72
2021/12/28 00:23:03;;;;;;;23.65;12.27;;;;;;;-2.18;53.33;99795.00;5024785;28;20049;-70
2021/12/28 00:25:30;;;;;;;23.52;12.82;;;;;;;-2.17;53.60;99798.44;5023873;28;20095;-69
2021/12/28 00:27:57;;;;;;;33.00;17.98;;;;;;;-2.18;53.52;99797.59;5024677;28;20046;-70
2021/12/28 00:30:25;;;;;;;18.23;11.38;;;;;;;-2.15;53.45;99788.88;5024472;28;20052;-70
2021/12/28 00:32:53;;;;;;;26.58;15.45;;;;;;;-2.13;53.36;99790.50;5024710;28;20053;-70
2021/12/28 00:35:23;;;;;;;25.00;13.82;;;;;;;-2.12;53.51;99789.63;5025249;28;20425;-68
2021/12/28 00:37:51;;;;;;;37.13;19.55;;;;;;;-2.19;53.27;99793.28;5024165;28;20045;-68
2021/12/28 00:40:18;;;;;;;22.98;15.10;;;;;;;-2.14;53.51;99799.19;5024917;28;20064;-67
2021/12/28 00:42:46;;;;;;;17.38;9.60;;;;;;;-2.15;53.43;99797.47;5005829;28;20067;-71
2021/12/28 00:45:14;;;;;;;26.50;16.63;;;;;;;-2.20;53.36;99801.09;5024219;28;20058;-71
2021/12/28 00:47:41;;;;;;;26.23;14.27;;;;;;;-2.16;53.26;99789.75;5024154;28;20129;-68
2021/12/28 00:50:10;;;;;;;24.63;12.02;;;;;;;-2.10;53.30;99796.53;5025102;28;20508;-71
2021/12/28 00:52:38;;;;;;;28.35;17.02;;;;;;;-2.10;53.07;99799.94;5024999;28;20703;-70
2021/12/28 00:55:07;;;;;;;29.08;18.70;;;;;;;-2.11;53.10;99793.06;5024486;28;20049;-70
2021/12/28 00:57:34;;;;;;;14.35;8.45;;;;;;;-2.09;52.92;99793.88;5024327;28;20550;-68
2021/12/28 01:00:01;;;;;;;38.88;21.38;;;;;;;-2.14;53.30;99791.44;5024215;28;20581;-71
2021/12/28 01:02:28;;;;;;;26.08;14.32;;;;;;;-2.14;53.08;99794.00;5025088;28;20041;-71
2021/12/28 01:04:56;;;;;;;36.50;19.27;;;;;;;-2.14;53.27;99798.34;5027247;28;20056;-70
2021/12/28 01:07:23;;;;;;;36.92;18.77;;;;;;;-2.10;52.92;99793.94;5024405;28;20041;-70
2021/12/28 01:09:52;;;;;;;28.00;12.23;;;;;;;-2.08;53.26;99799.91;5007327;28;20049;-68
2021/12/28 01:12:20;;;;;;;33.80;15.52;;;;;;;-2.09;53.28;99782.69;5022558;28;20232;-70
2021/12/28 01:14:47;;;;;;;28.00;15.23;;;;;;;-2.14;52.97;99786.25;5023332;28;20589;-71
2021/12/28 01:17:14;;;;;;;21.42;10.95;;;;;;;-2.12;53.03;99784.47;5024321;28;20056;-71
2021/12/28 01:19:42;;;;;;;36.38;17.38;;;;;;;-2.13;53.29;99777.56;5024651;28;20045;-73
2021/12/28 01:22:09;;;;;;;29.30;11.55;;;;;;;-2.12;53.04;99775.88;5023829;28;20132;-70
2021/12/28 01:24:36;;;;;;;28.70;12.70;;;;;;;-2.19;53.11;99761.41;5024457;28;20049;-69
2021/12/28 01:27:05;;;;;;;40.58;17.05;;;;;;;-2.26;53.22;99752.97;5023914;28;20049;-70
2021/12/28 01:29:33;;;;;;;26.45;11.48;;;;;;;-2.30;53.13;99753.94;5023890;28;20049;-68
2021/12/28 01:32:01;;;;;;;26.80;15.75;;;;;;;-2.39;53.50;99751.59;5024401;28;20534;-70
2021/12/28 01:34:28;;;;;;;30.95;13.07;;;;;;;-2.41;53.71;99761.13;5023896;28;20792;-70
2021/12/28 01:36:55;;;;;;;25.00;13.85;;;;;;;-2.41;53.40;99758.53;5024076;28;20520;-70
2021/12/28 01:39:23;;;;;;;26.65;13.75;;;;;;;-2.45;53.45;99747.44;5024133;28;20049;-70
2021/12/28 01:41:51;;;;;;;25.33;11.20;;;;;;;-2.47;53.70;99761.31;5024386;28;20049;-69
2021/12/28 01:44:19;;;;;;;21.90;11.77;;;;;;;-2.52;53.78;99745.91;5022765;28;20132;-69
2021/12/28 01:46:46;;;;;;;24.48;11.90;;;;;;;-2.56;53.69;99744.28;5023785;28;20056;-71
2021/12/28 01:49:13;;;;;;;34.72;19.88;;;;;;;-2.58;53.69;99735.72;5024454;28;20052;-71
2021/12/28 01:51:41;;;;;;;16.25;11.30;;;;;;;-2.54;53.75;99740.78;5024071;28;20141;-69
2021/12/28 01:54:08;;;;;;;35.53;19.30;;;;;;;-2.53;53.55;99737.31;5024667;28;20132;-71
2021/12/28 01:56:38;;;;;;;27.00;13.85;;;;;;;-2.46;53.80;99745.75;5024007;28;20080;-70
2021/12/28 01:59:06;;;;;;;16.58;9.55;;;;;;;-2.48;53.87;99737.19;5024269;28;20049;-69
2021/12/28 02:01:35;;;;;;;25.55;11.07;;;;;;;-2.49;53.60;99732.91;5025144;28;20045;-70
2021/12/28 02:04:03;;;;;;;40.15;17.67;;;;;;;-2.48;53.70;99731.16;5024862;28;20096;-69
2021/12/28 02:06:31;;;;;;;36.95;16.88;;;;;;;-2.50;53.42;99726.03;5024345;28;20068;-71
2021/12/28 02:08:58;;;;;;;25.17;11.75;;;;;;;-2.47;53.77;99733.69;5024719;28;20052;-71
2021/12/28 02:11:25;;;;;;;38.17;19.33;;;;;;;-2.50;53.88;99729.47;5025078;28;20121;-70
2021/12/28 02:13:53;;;;;;;21.30;14.18;;;;;;;-2.49;53.60;99725.13;5022258;28;20085;-69
2021/12/28 02:16:21;;;;;;;22.60;10.98;;;;;;;-2.45;53.86;99718.97;5024495;28;20049;-69
2021/12/28 02:18:50;;;;;;;20.50;10.05;;;;;;;-2.42;53.68;99723.25;5024261;28;20050;-71
2021/12/28 02:21:18;;;;;;;36.35;18.05;;;;;;;-2.43;53.91;99726.69;5022633;28;20064;-69
2021/12/28 02:23:45;;;;;;;17.40;10.82;;;;;;;-2.40;53.60;99713.69;5025003;28;20041;-70
2021/12/28 02:26:12;;;;;;;22.35;12.10;;;;;;;-2.39;53.70;99712.81;5024466;28;20049;-71
2021/12/28 02:28:39;;;;;;;32.15;15.82;;;;;;;-2.41;53.45;99711.97;5022838;28;20674;-69
2021/12/28 02:31:06;;;;;;;15.80;10.32;;;;;;;-2.40;53.46;99709.34;5025248;28;20042;-69
2021/12/28 02:33:36;;;;;;;31.98;19.25;;;;;;;-2.43;53.72;99704.28;5023634;28;20080;-70
2021/12/28 02:36:05;;;;;;;35.92;18.70;;;;;;;-2.41;53.92;99696.47;5006174;28;20050;-68
2021/12/28 02:38:34;;;;;;;22.85;11.88;;;;;;;-2.39;53.78;99694.72;5024695;28;20489;-71
2021/12/28 02:41:02;;;;;;;17.50;9.85;;;;;;;-2.40;53.89;99698.19;5023870;28;20095;-71
2021/12/28 02:43:29;;;;;;;31.38;16.83;;;;;;;-2.42;54.14;99687.03;5022963;28;20413;-70
2021/12/28 02:45:59;;;;;;;26.20;16.67;;;;;;;-2.41;54.07;99678.38;5027286;28;20195;-71
2021/12/28 02:48:27;;;;;;;23.83;14.13;;;;;;;-2.40;54.06;99677.50;5026970;28;20141;-71
2021/12/28 02:50:57;;;;;;;20.90;12.75;;;;;;;-2.43;53.78;99685.31;5027669;28;20462;-70
2021/12/28 02:53:25;;;;;;;23.50;12.70;;;;;;;-2.44;54.11;99675.88;5027825;28;20051;-69
2021/12/28 02:55:57;;;;;;;13.50;7.70;;;;;;;-2.40;53.85;99683.50;5026989;28;20060;-70
2021/12/28 02:58:29;;;;;;;18.85;11.55;;;;;;;-2.40;53.76;99672.31;5028389;28;20049;-69
2021/12/28 03:01:00;;;;;;;33.75;17.92;;;;;;;-2.41;54.26;99679.25;5027796;28;20079;-70
2021/12/28 03:03:29;;;;;;;33.70;19.38;;;;;;;-2.41;54.18;99666.31;5028887;28;20079;-69
2021/12/28 03:05:59;;;;;;;14.70;7.85;;;;;;;-2.37;54.21;99665.31;5028572;28;20505;-70
2021/12/28 03:08:28;;;;;;;27.50;13.60;;;;;;;-2.46;54.41;99675.94;5027441;28;20045;-69
2021/12/28 03:10:58;;;;;;;26.63;14.32;;;;;;;-2.44;54.21;99676.72;5026632;28;20084;-70
2021/12/28 03:13:27;;;;;;;23.65;12.82;;;;;;;-2.40;54.22;99678.31;5025943;28;20700;-70
2021/12/28 03:15:59;;;;;;;16.58;10.90;;;;;;;-2.37;54.36;99670.50;5027611;28;20535;-70
2021/12/28 03:18:26;;;;;;;34.10;19.20;;;;;;;-2.38;54.26;99681.72;5026442;28;20072;-70
2021/12/28 03:20:54;;;;;;;25.85;12.20;;;;;;;-2.37;54.26;99680.00;5028332;28;20045;-69
2021/12/28 03:23:24;;;;;;;26.83;12.27;;;;;;;-2.36;54.36;99679.97;5026794;28;20111;-71
2021/12/28 03:25:52;;;;;;;38.40;24.23;;;;;;;-2.40;54.65;99682.66;5028088;28;20064;-70
2021/12/28 03:28:24;;;;;;;12.77;8.38;;;;;;;-2.38;54.40;99668.78;5027399;28;20618;-69
2021/12/28 03:30:57;;;;;;;34.63;18.55;;;;;;;-2.44;54.50;99668.97;5027301;28;20067;-68
2021/12/28 03:33:28;;;;;;;14.30;9.13;;;;;;;-2.39;54.57;99668.84;5027110;28;20535;-68
2021/12/28 03:35:55;;;;;;;21.88;7.75;;;;;;;-2.34;54.39;99674.72;5027387;28;20045;-68
2021/12/28 03:38:23;;;;;;;31.95;17.58;;;;;;;-2.37;54.37;99677.41;5026807;28;20049;-69
2021/12/28 03:40:51;;;;;;;17.90;8.38;;;;;;;-2.36;54.57;99673.91;5027628;28;20052;-69
2021/12/28 03:43:20;;;;;;;10.68;7.05;;;;;;;-2.37;54.28;99662.72;5025292;28;20098;-69
2021/12/28 03:45:48;;;;;;;29.75;12.25;;;;;;;-2.37;54.40;99665.31;5008598;28;20639;-70
2021/12/28 03:48:16;;;;;;;20.00;11.75;;;;;;;-2.37;54.52;99654.13;5027074;28;20594;-71
2021/12/28 03:50:44;;;;;;;28.75;16.88;;;;;;;-2.35;54.78;99649.75;5027356;28;20235;-71
2021/12/28 03:53:11;;;;;;;25.67;13.30;;;;;;;-2.33;54.75;99647.97;5026444;28;20056;-71
2021/12/28 03:55:39;;;;;;;37.63;18.38;;;;;;;-2.35;54.71;99647.16;5026606;28;20111;-68
2021/12/28 03:58:06;;;;;;;35.78;21.10;;;;;;;-2.36;54.98;99640.28;5026890;28;20068;-69
2021/12/28 04:00:38;;;;;;;22.85;15.18;;;;;;;-2.29;54.73;99659.06;5026473;28;20616;-69
2021/12/28 04:03:06;;;;;;;33.20;18.73;;;;;;;-2.35;55.08;99650.59;5026896;28;20052;-69
2021/12/28 04:05:33;;;;;;;37.67;21.48;;;;;;;-2.36;55.06;99646.34;5026538;28;20056;-68
2021/12/28 04:08:00;;;;;;;34.25;14.43;;;;;;;-2.33;55.10;99653.16;5025498;28;20060;-69
2021/12/28 04:10:31;;;;;;;34.05;24.65;;;;;;;-2.35;55.07;99649.75;5026847;28;20136;-70
2021/12/28 04:12:59;;;;;;;21.05;12.75;;;;;;;-2.32;55.14;99647.09;5026241;28;20067;-69
2021/12/28 04:15:26;;;;;;;17.15;8.63;;;;;;;-2.34;55.21;99646.25;5027736;28;20053;-70
2021/12/28 04:17:55;;;;;;;21.98;12.80;;;;;;;-2.28;55.28;99646.09;5027276;28;20129;-72
2021/12/28 04:20:23;;;;;;;28.02;14.80;;;;;;;-2.30;55.23;99637.53;5026638;28;20053;-69
2021/12/28 04:22:50;;;;;;;18.52;10.27;;;;;;;-2.26;54.86;99635.72;5026198;28;20096;-68
2021/12/28 04:25:19;;;;;;;30.05;13.52;;;;;;;-2.25;55.27;99635.66;5026454;28;20049;-69
2021/12/28 04:27:47;;;;;;;22.67;12.32;;;;;;;-2.23;55.28;99640.78;5025952;28;20056;-70
2021/12/28 04:30:15;;;;;;;25.40;13.55;;;;;;;-2.24;55.22;99639.94;5026762;28;20041;-70
2021/12/28 04:32:43;;;;;;;24.75;12.55;;;;;;;-2.21;55.20;99645.03;5026744;28;20583;-69
2021/12/28 04:35:14;;;;;;;33.33;17.92;;;;;;;-2.16;55.24;99635.38;5025465;28;20059;-68
2021/12/28 04:37:42;;;;;;;16.60;9.35;;;;;;;-2.11;55.15;99637.81;5008333;28;20049;-71
2021/12/28 04:40:11;;;;;;;26.35;14.48;;;;;;;-2.15;55.67;99638.81;5026156;28;20049;-71
2021/12/28 04:42:38;;;;;;;19.92;10.38;;;;;;;-2.14;55.13;99650.88;5023733;28;20056;-71
2021/12/28 04:45:08;;;;;;;26.83;18.63;;;;;;;-2.11;55.61;99643.00;5025359;28;20085;-69
2021/12/28 04:47:35;;;;;;;19.35;8.02;;;;;;;-2.03;55.30;99640.19;5026136;28;20103;-69
2021/12/28 04:50:02;;;;;;;27.65;15.45;;;;;;;-2.05;55.15;99629.03;5025720;28;20049;-68
2021/12/28 04:52:35;;;;;;;14.20;8.77;;;;;;;-2.04;55.10;99625.56;5025202;28;20081;-69
2021/12/28 04:55:02;;;;;;;35.70;19.42;;;;;;;-2.05;55.65;99626.44;5025145;28;20045;-68
2021/12/28 04:57:29;;;;;;;31.27;17.52;;;;;;;-2.04;55.77;99623.81;5024735;28;20053;-68
2021/12/28 04:59:55;;;;;;;24.48;12.05;;;;;;;-1.98;55.76;99622.75;5024798;28;20512;-69
2021/12/28 05:02:22;;;;;;;25.45;13.00;;;;;;;-1.94;55.25;99625.22;5024907;28;20047;-69
2021/12/28 05:04:49;;;;;;;22.17;11.45;;;;;;;-1.92;55.54;99625.16;5024811;28;20071;-68
2021/12/28 05:07:16;;;;;;;36.35;22.15;;;;;;;-1.97;55.73;99620.13;5024335;28;20132;-70
2021/12/28 05:09:45;;;;;;;29.95;16.35;;;;;;;-1.94;55.67;99621.78;5025408;28;20045;-70
2021/12/28 05:12:12;;;;;;;28.50;18.35;;;;;;;-1.92;55.47;99625.16;5023703;28;20052;-72
2021/12/28 05:14:41;;;;;;;30.52;18.40;;;;;;;-1.91;55.70;99624.25;5024925;28;20049;-70
2021/12/28 05:17:08;;;;;;;35.25;19.63;;;;;;;-1.92;55.93;99622.59;5025672;28;20132;-70
2021/12/28 05:19:36;;;;;;;32.53;16.20;;;;;;;-1.88;56.08;99619.00;5024582;28;20055;-71
2021/12/28 05:22:04;;;;;;;24.33;14.07;;;;;;;-1.82;56.00;99618.81;5024555;28;20486;-68
2021/12/28 05:24:31;;;;;;;33.08;19.77;;;;;;;-1.82;55.88;99616.22;5025417;28;20684;-71
2021/12/28 05:26:59;;;;;;;37.15;18.83;;;;;;;-1.79;56.06;99623.03;5025071;28;20046;-71
2021/12/28 05:29:26;;;;;;;20.45;12.02;;;;;;;-1.76;55.97;99621.19;5025339;28;20129;-69
2021/12/28 05:31:53;;;;;;;24.67;11.98;;;;;;;-1.72;55.61;99614.19;5025215;28;20045;-70
2021/12/28 05:34:20;;;;;;;25.40;13.57;;;;;;;-1.67;55.81;99622.66;5025375;28;20684;-70
2021/12/28 05:36:47;;;;;;;26.13;15.90;;;;;;;-1.64;56.07;99613.94;5024264;28;20501;-70
2021/12/28 05:39:14;;;;;;;28.65;19.35;;;;;;;-1.63;55.81;99613.03;5024175;28;20045;-69
2021/12/28 05:41:42;;;;;;;35.20;17.80;;;;;;;-1.67;56.12;99617.47;5024880;28;20412;-69
2021/12/28 05:44:11;;;;;;;19.05;10.98;;;;;;;-1.60;55.68;99625.91;5023100;28;20053;-71
2021/12/28 05:46:38;;;;;;;20.92;11.85;;;;;;;-1.62;55.81;99618.19;5024172;28;20056;-70
2021/12/28 05:49:05;;;;;;;24.17;14.73;;;;;;;-1.62;55.72;99622.47;5024976;28;20045;-70
2021/12/28 05:51:32;;;;;;;28.13;15.98;;;;;;;-1.61;55.90;99621.59;5024538;28;20056;-69
2021/12/28 05:53:59;;;;;;;29.40;15.45;;;;;;;-1.57;56.04;99623.19;5024247;28;20050;-69
2021/12/28 05:56:26;;;;;;;22.80;10.77;;;;;;;-1.54;55.79;99608.38;5025821;28;20046;-68
2021/12/28 05:58:53;;;;;;;31.75;15.98;;;;;;;-1.50;55.96;99611.72;5024631;28;20394;-69
2021/12/28 06:01:22;;;;;;;21.90;11.77;;;;;;;-1.42;55.88;99608.91;5023038;28;20046;-75
2021/12/28 06:03:49;;;;;;;21.23;12.80;;;;;;;-1.40;55.76;99609.69;5024502;28;20042;-71
2021/12/28 06:06:17;;;;;;;25.40;15.55;;;;;;;-1.37;55.79;99606.97;5021490;28;20185;-70
2021/12/28 06:08:44;;;;;;;32.80;17.15;;;;;;;-1.40;56.42;99605.34;5024077;28;20045;-67
2021/12/28 06:11:12;;;;;;;23.80;13.82;;;;;;;-1.35;56.34;99613.81;5025354;28;20358;-68
2021/12/28 06:13:40;;;;;;;15.25;8.48;;;;;;;-1.24;55.92;99615.16;5022305;28;20065;-68
2021/12/28 06:16:08;;;;;;;23.40;14.23;;;;;;;-1.25;56.47;99616.94;5022626;28;20049;-71
2021/12/28 06:18:38;;;;;;;21.17;12.43;;;;;;;-1.17;56.37;99627.88;5025030;28;20065;-70
2021/12/28 06:21:06;;;;;;;28.38;12.70;;;;;;;-1.10;55.95;99625.06;5027076;28;20454;-69
2021/12/28 06:23:33;;;;;;;21.52;10.55;;;;;;;-1.09;56.08;99621.59;5028144;28;20053;-74
2021/12/28 06:26:00;;;;;;;27.05;12.63;;;;;;;-1.14;56.16;99613.97;5028061;28;20063;-70
2021/12/28 06:28:27;;;;;;;35.65;15.82;;;;;;;-1.16;56.70;99613.19;5027030;28;20041;-70
2021/12/28 06:30:56;;;;;;;20.70;10.95;;;;;;;-1.14;56.45;99611.38;5028109;28;20204;-69
2021/12/28 06:33:23;;;;;;;20.75;11.18;;;;;;;-1.10;56.09;99610.34;5027543;28;20052;-70
2021/12/28 06:35:52;;;;;;;18.95;10.60;;;;;;;-1.09;56.64;99604.28;5026896;28;20041;-69
2021/12/28 06:38:19;;;;;;;19.05;8.75;;;;;;;-1.09;56.47;99603.47;5028147;28;20056;-69
2021/12/28 06:40:47;;;;;;;17.08;9.68;;;;;;;-1.10;56.74;99593.97;5027453;28;20049;-70
2021/12/28 06:43:15;;;;;;;23.35;14.38;;;;;;;-1.14;56.45;99576.84;5026432;28;20056;-70
2021/12/28 06:45:42;;;;;;;14.10;10.85;;;;;;;-1.18;56.85;99576.94;5027862;28;20503;-69
2021/12/28 06:48:10;;;;;;;20.63;11.60;;;;;;;-1.15;56.49;99586.38;5026750;28;20413;-72
2021/12/28 06:50:37;;;;;;;20.38;11.05;;;;;;;-1.11;56.84;99587.94;5027533;28;20045;-70
2021/12/28 06:53:05;;;;;;;22.88;12.40;;;;;;;-1.05;56.76;99598.09;5027606;28;20072;-71
2021/12/28 06:55:32;;;;;;;23.50;11.05;;;;;;;-0.99;56.49;99597.03;5027245;28;20053;-69
2021/12/28 06:57:59;;;;;;;22.35;12.63;;;;;;;-1.03;56.62;99601.47;5027175;28;20429;-67
2021/12/28 07:00:26;;;;;;;10.35;6.15;;;;;;;-1.03;56.41;99603.22;5028023;28;20072;-71
2021/12/28 07:02:53;;;;;;;23.77;16.77;;;;;;;-1.08;56.85;99610.31;5027660;28;20052;-73
2021/12/28 07:05:20;;;;;;;12.20;7.60;;;;;;;-1.01;56.60;99607.47;5026467;28;20049;-69
2021/12/28 07:07:47;;;;;;;18.90;8.73;;;;;;;-0.93;56.35;99619.31;5025689;28;20057;-68
2021/12/28 07:10:19;;;;;;;22.58;11.75;;;;;;;-0.88;56.60;99622.56;5026886;28;20050;-70
2021/12/28 07:12:48;;;;;;;18.20;9.57;;;;;;;-0.83;56.46;99618.06;5025428;28;20100;-70
2021/12/28 07:15:15;;;;;;;31.02;19.65;;;;;;;-0.86;56.65;99616.44;5028023;28;20099;-70
2021/12/28 07:17:42;;;;;;;17.48;10.63;;;;;;;-0.80;56.29;99620.56;5026996;28;20533;-70
2021/12/28 07:20:10;;;;;;;24.00;13.60;;;;;;;-0.86;56.62;99616.44;5029158;28;20041;-73
2021/12/28 07:22:37;;;;;;;21.20;10.75;;;;;;;-0.78;56.48;99621.34;5030698;28;20055;-77
2021/12/28 07:25:09;;;;;;;21.60;12.63;;;;;;;-0.74;56.51;99620.31;5036343;28;20029;-79
2021/12/28 07:27:38;;;;;;;19.00;11.18;;;;;;;-0.69;56.36;99620.16;5040822;28;20053;-74
2021/12/28 07:30:08;;;;;;;15.05;9.50;;;;;;;-0.62;56.16;99619.88;5037210;28;20109;-76
2021/12/28 07:32:37;;;;;;;15.82;9.38;;;;;;;-0.56;55.97;99611.03;5042544;28;20113;-78
2021/12/28 07:35:05;;;;;;;21.02;10.30;;;;;;;-0.51;55.79;99606.50;5028473;28;20045;-82
2021/12/28 07:37:35;;;;;;;15.30;7.40;;;;;;;-0.49;55.59;99609.06;5050564;28;20091;-75
2021/12/28 07:40:03;;;;;;;21.60;13.85;;;;;;;-0.50;55.81;99612.56;5044035;28;20152;-79
2021/12/28 07:42:31;;;;;;;22.13;12.57;;;;;;;-0.48;55.68;99610.75;5046208;28;20068;-76
2021/12/28 07:45:02;;;;;;;14.38;9.02;;;;;;;-0.48;55.96;99597.78;5035047;28;20093;-76
2021/12/28 07:47:30;;;;;;;21.48;12.00;;;;;;;-0.47;55.65;99602.06;5037489;28;20175;-77
2021/12/28 07:49:57;;;;;;;25.17;13.80;;;;;;;-0.40;55.88;99595.72;5049136;28;20037;-79
2021/12/28 07:52:24;;;;;;;15.88;9.40;;;;;;;-0.35;55.70;99600.75;5048643;28;20065;-77
2021/12/28 07:54:51;;;;;;;18.15;11.10;;;;;;;-0.28;55.64;99582.28;5049550;28;20117;-79
2021/12/28 07:57:18;;;;;;;17.83;10.13;;;;;;;-0.22;55.43;99587.25;5045033;28;20105;-75
2021/12/28 07:59:46;;;;;;;17.88;12.18;;;;;;;-0.25;55.74;99589.13;5034401;28;20117;-73
2021/12/28 08:02:14;;;;;;;17.65;13.75;;;;;;;-0.27;55.38;99588.31;5037090;28;20049;-69
2021/12/28 08:04:43;;;;;;;19.60;11.43;;;;;;;-0.21;55.21;99577.72;5010883;28;20280;-72
2021/12/28 08:07:10;;;;;;;20.25;9.70;;;;;;;-0.16;55.36;99586.19;5013421;28;20044;-72
2021/12/28 08:09:39;;;;;;;19.45;12.60;;;;;;;-0.16;55.36;99581.00;5029544;28;20045;-68
2021/12/28 08:12:07;;;;;;;14.95;7.82;;;;;;;-0.18;55.24;99572.41;5034286;28;20125;-76
2021/12/28 08:14:34;;;;;;;13.45;6.70;;;;;;;-0.29;55.07;99572.84;4986975;28;20059;-74
2021/12/28 08:17:01;;;;;;;14.82;7.72;;;;;;;-0.26;55.16;99582.25;5045115;28;20130;-70
2021/12/28 08:19:31;;;;;;;16.88;8.55;;;;;;;-0.18;55.40;99584.53;5027860;28;20052;-68
2021/12/28 08:21:59;;;;;;;23.58;16.55;;;;;;;-0.23;55.20;99588.16;5047266;28;20400;-71
2021/12/28 08:24:25;;;;;;;18.15;14.60;;;;;;;-0.18;55.05;99589.72;5037698;28;20069;-73
2021/12/28 08:26:52;;;;;;;14.65;9.50;;;;;;;-0.16;54.92;99580.13;5039512;28;20310;-73
2021/12/28 08:29:19;;;;;;;13.70;7.68;;;;;;;-0.09;54.83;99582.44;5041739;28;20033;-70
2021/12/28 08:31:46;;;;;;;16.25;9.50;;;;;;;-0.01;54.73;99589.91;5034371;28;20486;-71
2021/12/28 08:34:13;;;;;;;11.75;7.93;;;;;;;0.07;54.58;99587.84;5006320;28;20064;-72
2021/12/28 08:36:42;;;;;;;14.30;7.72;;;;;;;0.15;54.60;99579.75;5037086;28;20053;-72
2021/12/28 08:39:09;;;;;;;19.67;9.95;;;;;;;0.03;54.38;99591.47;5034028;28;20235;-71
2021/12/28 08:41:36;;;;;;;16.15;7.45;;;;;;;0.12;54.72;99574.69;5027151;28;20695;-72
2021/12/28 08:44:03;;;;;;;11.40;6.93;;;;;;;0.08;54.15;99563.56;5029336;28;20046;-71
2021/12/28 08:46:30;;;;;;;17.67;9.88;;;;;;;0.04;54.49;99551.63;5032727;28;20072;-71
2021/12/28 08:48:57;;;;;;;19.38;13.13;;;;;;;-0.04;54.63;99553.69;5029697;28;20136;-71
2021/12/28 08:51:24;;;;;;;21.88;12.85;;;;;;;-0.07;54.44;99540.84;5029473;28;20052;-68
2021/12/28 08:53:53;;;;;;;15.15;9.38;;;;;;;0.05;54.65;99542.91;5028987;28;20075;-73
2021/12/28 08:56:20;;;;;;;18.75;8.65;;;;;;;0.16;54.18;99550.28;5024863;28;20068;-74
2021/12/28 08:58:47;;;;;;;16.42;8.82;;;;;;;0.22;54.40;99554.38;5024707;28;20056;-75
2021/12/28 09:01:14;;;;;;;18.95;12.02;;;;;;;0.28;54.14;99559.31;5024370;28;20125;-75
2021/12/28 09:03:43;;;;;;;15.05;10.27;;;;;;;0.32;54.07;99548.72;5024822;28;20103;-74
2021/12/28 09:06:12;;;;;;;18.05;10.02;;;;;;;0.35;53.89;99555.56;5023926;28;20661;-72
2021/12/28 09:08:39;;;;;;;17.13;10.15;;;;;;;0.30;53.62;99531.53;5026044;28;20045;-73
2021/12/28 09:11:10;;;;;;;17.80;10.25;;;;;;;0.14;54.28;99510.53;4974586;28;20081;-75
2021/12/28 09:13:42;;;;;;;16.55;11.77;;;;;;;-0.01;54.42;99522.41;5008478;28;20045;-76
2021/12/28 09:16:09;;;;;;;21.30;14.95;;;;;;;-0.12;54.46;99511.63;5032536;28;20068;-75
2021/12/28 09:18:37;;;;;;;16.10;10.32;;;;;;;-0.05;54.21;99515.66;5032297;28;20099;-79
2021/12/28 09:21:04;;;;;;;12.73;7.25;;;;;;;0.00;54.39;99513.72;5027769;28;20059;-79
2021/12/28 09:23:31;;;;;;;24.25;11.27;;;;;;;-0.06;54.17;99508.78;5007409;28;20051;-74
2021/12/28 09:25:58;;;;;;;18.30;13.80;;;;;;;-0.07;54.26;99518.31;5020207;28;20136;-78
2021/12/28 09:28:27;;;;;;;20.27;13.30;;;;;;;0.07;54.25;99530.72;5023803;28;20054;-73
2021/12/28 09:30:54;;;;;;;18.38;10.27;;;;;;;0.22;54.06;99538.78;5020761;28;20063;-73
2021/12/28 09:33:21;;;;;;;24.33;10.00;;;;;;;0.34;54.05;99531.34;5002700;28;20069;-73
2021/12/28 09:35:48;;;;;;;17.60;11.50;;;;;;;0.37;53.46;99533.78;5018704;28;20172;-73
2021/12/28 09:38:19;;;;;;;16.85;7.10;;;;;;;0.49;53.64;99553.22;5022165;28;20402;-77
2021/12/28 09:40:48;;;;;;;21.23;10.80;;;;;;;0.62;53.39;99547.53;5023704;28;20703;-75
2021/12/28 09:43:15;;;;;;;23.38;10.38;;;;;;;0.63;53.13;99542.25;5020869;28;20042;-74
2021/12/28 09:45:44;;;;;;;17.13;10.18;;;;;;;0.52;53.39;99536.66;5017804;28;20705;-72
2021/12/28 09:48:12;;;;;;;17.75;10.63;;;;;;;0.54;53.46;99540.03;5020090;28;20077;-75
2021/12/28 09:50:41;;;;;;;12.18;6.50;;;;;;;0.70;53.33;99535.88;5020232;28;20041;-71
2021/12/28 09:53:10;;;;;;;17.98;8.43;;;;;;;0.82;53.17;99523.25;5019338;28;20651;-71
2021/12/28 09:55:38;;;;;;;17.08;9.30;;;;;;;0.87;52.84;99532.53;5018855;28;20142;-74
2021/12/28 09:58:05;;;;;;;12.80;8.15;;;;;;;0.86;52.83;99524.81;5014854;28;20162;-73
2021/12/28 10:00:32;;;;;;;15.32;7.15;;;;;;;0.93;52.96;99542.66;5021229;28;20197;-73
2021/12/28 10:03:00;;;;;;;13.80;8.15;;;;;;;1.02;52.97;99536.19;5020251;28;20053;-73
2021/12/28 10:05:29;;;;;;;14.15;8.00;;;;;;;1.02;52.71;99540.56;5021288;28;20763;-73
2021/12/28 10:07:57;;;;;;;13.52;7.35;;;;;;;1.09;52.52;99537.63;5020719;28;20060;-74
2021/12/28 10:10:26;;;;;;;10.13;5.57;;;;;;;1.07;52.61;99541.22;5026572;28;20133;-74
2021/12/28 10:12:55;;;;;;;12.20;7.43;;;;;;;1.00;52.40;99537.19;5034454;28;20259;-72
2021/12/28 10:15:24;;;;;;;14.82;10.00;;;;;;;0.94;52.63;99525.31;5027437;28;20045;-72
2021/12/28 10:17:53;;;;;;;20.65;8.27;;;;;;;1.01;52.77;99537.13;5026125;28;20045;-74
2021/12/28 10:20:26;;;;;;;15.30;8.68;;;;;;;1.16;52.44;99532.16;5022162;28;20084;-71
2021/12/28 10:22:58;;;;;;;14.75;8.95;;;;;;;1.04;52.24;99533.53;5023589;28;20111;-71
2021/12/28 10:25:27;;;;;;;13.15;8.73;;;;;;;1.22;52.33;99542.28;5023084;28;20083;-72
2021/12/28 10:27:57;;;;;;;19.33;9.98;;;;;;;1.36;52.07;99524.28;5024593;28;20049;-70
2021/12/28 10:30:27;;;;;;;14.57;9.20;;;;;;;1.34;51.91;99520.91;5027838;28;20118;-71
2021/12/28 10:32:56;;;;;;;18.23;7.97;;;;;;;1.31;51.89;99516.69;5026687;28;20055;-68
2021/12/28 10:35:27;;;;;;;15.73;8.73;;;;;;;1.23;52.22;99511.00;5019221;28;20056;-70
2021/12/28 10:37:56;;;;;;;11.15;7.60;;;;;;;1.19;52.23;99512.06;5024048;28;20144;-75
2021/12/28 10:40:27;;;;;;;15.73;9.75;;;;;;;0.98;52.20;99513.88;5021936;28;20132;-70
2021/12/28 10:42:59;;;;;;;16.48;9.65;;;;;;;0.91;52.44;99512.44;5021729;28;20057;-79
2021/12/28 10:45:29;;;;;;;14.35;9.88;;;;;;;0.96;52.42;99515.69;5022763;28;20064;-75
2021/12/28 10:47:57;;;;;;;7.40;4.72;;;;;;;1.07;52.06;99500.44;5020226;28;20073;-74
2021/12/28 10:50:35;;;;;;;15.68;10.57;;;;;;;1.06;52.47;99495.31;5021578;28;20140;-74
2021/12/28 10:53:10;;;;;;;14.32;8.20;;;;;;;1.04;52.12;99495.38;5020298;28;20121;-74
2021/12/28 10:55:37;;;;;;;12.10;6.82;;;;;;;1.04;51.98;99486.72;5021186;28;20634;-78
2021/12/28 10:58:06;;;;;;;14.35;8.77;;;;;;;0.94;52.20;99487.16;5021400;28;20085;-73
2021/12/28 11:00:38;;;;;;;15.02;10.20;;;;;;;0.99;51.99;99492.16;5019107;28;20037;-76
2021/12/28 11:03:28;;;;;;;19.30;10.40;;;;;;;1.02;51.99;99483.38;5016710;28;20084;-71
2021/12/28 11:05:59;;;;;;;9.25;7.07;;;;;;;1.00;51.63;99477.38;5017582;28;20069;-73
2021/12/28 11:08:28;;;;;;;16.05;9.88;;;;;;;0.83;52.16;99471.19;5018358;28;20410;-73
2021/12/28 11:10:58;;;;;;;14.18;10.65;;;;;;;0.71;51.97;99464.78;5014865;28;20203;-73
2021/12/28 11:13:28;;;;;;;21.65;13.30;;;;;;;0.69;52.26;99465.78;5015780;28;20045;-71
2021/12/28 11:15:58;;;;;;;15.38;10.90;;;;;;;0.73;52.22;99468.16;5017320;28;20124;-72
2021/12/28 11:18:30;;;;;;;17.00;11.73;;;;;;;0.62;52.34;99453.97;5016329;28;20819;-71
2021/12/28 11:21:09;;;;;;;15.48;9.25;;;;;;;0.52;52.43;99448.31;5021078;28;20780;-72
2021/12/28 11:23:37;;;;;;;15.77;11.73;;;;;;;0.40;52.51;99443.66;5021282;28;20076;-75
2021/12/28 11:26:08;;;;;;;16.70;7.70;;;;;;;0.36;52.82;99453.34;5016074;28;20052;-75